Time;durP1;ratioP1;P1;durP2;ratioP2;P2;SDS_P1;SDS_P2;PMS_P1;PMS_P2;Temp;Humidity;BMP_temperature;BMP_pressure;BME280_temperature;BME280_humidity;BME280_pressure;Samples;Min_cycle;Max_cycle;Signal;HPM_P1;HPM_P2
2022/11/14 00:00:28;;;;;;;30.40;14.63;;;6.40;99.90;;;;;;21175553;28;20410;-78
2022/11/14 00:10:50;;;;;;;30.25;14.27;;;6.40;99.90;;;;;;21177039;28;20067;-79
2022/11/14 00:21:09;;;;;;;29.88;14.05;;;6.40;99.90;;;;;;21175058;28;20032;-79
2022/11/14 00:31:28;;;;;;;27.67;13.63;;;6.40;99.90;;;;;;21175925;28;20489;-79
2022/11/14 00:41:47;;;;;;;28.02;12.95;;;6.30;99.90;;;;;;21175357;28;20032;-79
2022/11/14 00:52:06;;;;;;;27.65;11.98;;;6.30;99.90;;;;;;21176703;28;20043;-78
2022/11/14 01:02:25;;;;;;;29.15;13.93;;;6.10;99.90;;;;;;21173798;28;20075;-79
2022/11/14 01:12:44;;;;;;;31.23;12.85;;;6.10;99.90;;;;;;21176000;28;20119;-79
2022/11/14 01:23:04;;;;;;;32.42;13.93;;;6.00;99.90;;;;;;21173331;28;20055;-78
2022/11/14 01:33:23;;;;;;;32.70;14.00;;;6.00;99.90;;;;;;21183605;28;20075;-79
2022/11/14 01:43:43;;;;;;;24.38;12.30;;;5.90;99.90;;;;;;21182429;28;20119;-79
2022/11/14 01:54:08;;;;;;;27.90;11.63;;;5.80;99.90;;;;;;21185297;28;20503;-78
2022/11/14 02:04:32;;;;;;;22.73;11.63;;;5.70;99.90;;;;;;21183659;28;20510;-79
2022/11/14 02:14:56;;;;;;;24.60;11.07;;;5.60;99.90;;;;;;21181632;28;20473;-78
2022/11/14 02:25:17;;;;;;;22.92;11.23;;;5.60;99.90;;;;;;21177134;28;20036;-78
2022/11/14 02:35:37;;;;;;;25.87;11.07;;;5.60;99.90;;;;;;21178906;28;20047;-79
2022/11/14 02:45:56;;;;;;;29.88;12.18;;;5.60;99.90;;;;;;21178114;28;20044;-79
2022/11/14 02:56:15;;;;;;;25.73;11.35;;;5.70;99.90;;;;;;21178384;28;20039;-79
2022/11/14 03:06:34;;;;;;;29.27;11.35;;;5.80;99.90;;;;;;21178469;28;20115;-79
2022/11/14 03:16:54;;;;;;;26.88;12.10;;;5.80;99.90;;;;;;21174108;28;20043;-78
2022/11/14 03:27:14;;;;;;;24.98;11.38;;;5.80;99.90;;;;;;21116718;27;20067;-78
2022/11/14 03:37:33;;;;;;;25.85;12.27;;;5.80;99.90;;;;;;21088445;28;20040;-79
2022/11/14 03:47:54;;;;;;;29.35;13.10;;;5.90;99.90;;;;;;21087631;28;20486;-79
2022/11/14 03:58:13;;;;;;;30.50;12.55;;;5.90;99.90;;;;;;21091422;28;20044;-79
2022/11/14 04:08:32;;;;;;;29.40;11.75;;;5.80;99.90;;;;;;21090165;28;20040;-79
2022/11/14 04:18:52;;;;;;;22.83;11.07;;;5.90;99.90;;;;;;21090442;28;20039;-78
2022/11/14 04:29:11;;;;;;;30.85;13.13;;;5.90;99.90;;;;;;21089955;28;20040;-79
2022/11/14 04:39:30;;;;;;;30.00;12.80;;;6.00;99.90;;;;;;21093148;28;20040;-80
2022/11/14 04:49:49;;;;;;;25.77;12.00;;;6.00;99.90;;;;;;21087336;28;20043;-78
2022/11/14 05:00:09;;;;;;;31.38;13.50;;;6.00;99.90;;;;;;21090159;28;20502;-79
2022/11/14 05:10:28;;;;;;;30.60;12.75;;;6.10;99.90;;;;;;21129785;28;20401;-79
2022/11/14 05:20:48;;;;;;;27.95;12.85;;;6.10;99.90;;;;;;21184930;28;20067;-78
2022/11/14 05:31:09;;;;;;;30.58;13.80;;;6.10;99.90;;;;;;21124637;28;20032;-80
2022/11/14 05:41:29;;;;;;;36.80;15.20;;;6.10;99.90;;;;;;21101802;28;20044;-79
2022/11/14 05:51:48;;;;;;;36.13;15.77;;;6.10;99.90;;;;;;21146484;28;20502;-80
2022/11/14 06:02:07;;;;;;;38.00;15.98;;;6.20;99.90;;;;;;21168557;28;20044;-80
2022/11/14 06:12:27;;;;;;;36.22;14.65;;;6.10;99.90;;;;;;21212339;28;20035;-80
2022/11/14 06:22:46;;;;;;;34.95;15.02;;;6.10;99.90;;;;;;21180957;28;20431;-79
2022/11/14 06:33:05;;;;;;;40.15;16.30;;;6.20;99.90;;;;;;21181893;28;20039;-80
2022/11/14 06:43:25;;;;;;;50.58;20.40;;;6.30;99.90;;;;;;21178916;28;20047;-78
2022/11/14 06:53:45;;;;;;;51.22;19.20;;;6.40;99.90;;;;;;21177131;28;20036;-78
2022/11/14 07:04:04;;;;;;;48.00;18.95;;;6.40;99.90;;;;;;21113317;28;20032;-78
2022/11/14 07:14:24;;;;;;;54.35;19.08;;;6.50;99.90;;;;;;21138622;28;20486;-78
2022/11/14 07:24:43;;;;;;;45.00;19.63;;;6.50;99.90;;;;;;21136076;28;20307;-78
2022/11/14 07:35:02;;;;;;;50.45;20.33;;;6.60;99.90;;;;;;21151095;28;20043;-79
2022/11/14 07:45:22;;;;;;;51.00;20.02;;;6.60;99.90;;;;;;21083463;28;20044;-78
2022/11/14 07:55:41;;;;;;;51.15;20.95;;;6.60;99.90;;;;;;21082787;28;20048;-78
2022/11/14 08:06:04;;;;;;;49.53;19.50;;;6.60;99.90;;;;;;21084143;28;20262;-79
2022/11/14 08:16:23;;;;;;;55.92;20.27;;;6.60;99.90;;;;;;21085214;28;20075;-79
2022/11/14 08:26:42;;;;;;;55.08;20.27;;;6.70;99.90;;;;;;21158340;28;20036;-79
2022/11/14 08:37:02;;;;;;;54.50;19.65;;;6.80;99.90;;;;;;21171918;28;20044;-79
2022/11/14 08:47:21;;;;;;;58.03;20.88;;;6.80;99.90;;;;;;21183884;28;20044;-79
2022/11/14 08:57:40;;;;;;;63.83;21.63;;;6.90;99.90;;;;;;21146318;28;20040;-79
2022/11/14 09:07:59;;;;;;;56.30;19.55;;;7.00;99.90;;;;;;21175026;28;20039;-79
2022/11/14 09:18:19;;;;;;;51.55;18.08;;;6.90;99.90;;;;;;21184365;28;20036;-80
2022/11/14 09:28:38;;;;;;;59.47;20.15;;;7.10;99.90;;;;;;21180791;28;20472;-78
2022/11/14 09:38:58;;;;;;;60.30;21.27;;;7.10;99.90;;;;;;21178569;28;20035;-79
2022/11/14 09:49:39;;;;;;;53.55;19.38;;;7.10;99.90;;;;;;21179336;28;20039;-79
2022/11/14 09:59:58;;;;;;;64.80;22.85;;;7.20;99.90;;;;;;21176992;28;20028;-79
2022/11/14 10:10:46;;;;;;;64.40;22.15;;;7.20;99.90;;;;;;21142599;28;20044;-79
2022/11/14 10:21:28;;;;;;;61.90;20.98;;;7.20;99.90;;;;;;21088834;28;20040;-79
2022/11/14 10:32:06;;;;;;;66.90;22.87;;;7.20;99.90;;;;;;21089662;28;20036;-79
2022/11/14 10:42:38;;;;;;;64.55;22.95;;;7.40;99.90;;;;;;21093773;28;20036;-79
2022/11/14 10:53:02;;;;;;;56.57;20.67;;;7.50;99.90;;;;;;21096085;28;20064;-79
2022/11/14 11:03:41;;;;;;;55.50;22.17;;;7.50;99.90;;;;;;21093349;28;20510;-78
2022/11/14 11:14:00;;;;;;;46.08;18.15;;;7.70;99.90;;;;;;21094572;28;20032;-78
2022/11/14 11:24:34;;;;;;;48.45;20.10;;;8.00;99.90;;;;;;21091529;28;20032;-78
2022/11/14 11:34:54;;;;;;;46.72;18.52;;;8.30;99.90;;;;;;21085005;28;20122;-78
2022/11/14 11:45:19;;;;;;;30.05;12.98;;;8.80;99.90;;;;;;21087136;28;20032;-79
2022/11/14 11:55:49;;;;;;;28.60;13.13;;;8.90;99.90;;;;;;21089649;28;20448;-78
2022/11/14 12:06:26;;;;;;;33.20;14.00;;;8.90;99.90;;;;;;21086453;28;20059;-78
2022/11/14 12:17:04;;;;;;;28.95;14.95;;;8.80;99.90;;;;;;21084793;28;20122;-79
2022/11/14 12:27:42;;;;;;;33.60;14.77;;;8.80;99.90;;;;;;21087754;28;20044;-79
2022/11/14 12:38:04;;;;;;;33.50;15.98;;;8.80;99.90;;;;;;21087894;28;20502;-79
2022/11/14 12:48:32;;;;;;;33.87;14.60;;;8.80;99.90;;;;;;21086336;28;20036;-79
2022/11/14 12:59:04;;;;;;;27.58;13.52;;;9.00;99.90;;;;;;21084468;28;20286;-78
2022/11/14 13:09:23;;;;;;;30.33;14.27;;;9.10;99.90;;;;;;21087112;28;20135;-79
2022/11/14 13:31:02;;;;;;;31.38;12.57;;;9.10;99.90;;;;;;21099687;28;20123;-80
2022/11/14 13:41:44;;;;;;;29.05;12.98;;;9.20;99.90;;;;;;21096914;28;20483;-79
2022/11/14 13:52:04;;;;;;;29.80;13.80;;;9.20;99.90;;;;;;21097968;28;20491;-81
2022/11/14 14:02:52;;;;;;;30.25;13.40;;;9.20;99.90;;;;;;21096353;28;20048;-80
2022/11/14 14:13:43;;;;;;;29.77;13.40;;;9.30;99.90;;;;;;21111252;28;20390;-79
2022/11/14 14:24:12;;;;;;;31.30;12.23;;;9.40;99.90;;;;;;21136433;28;20043;-79
2022/11/14 14:34:31;;;;;;;29.65;14.02;;;9.40;99.90;;;;;;21176708;28;20035;-80
2022/11/14 14:44:51;;;;;;;33.38;16.83;;;9.40;99.90;;;;;;21179360;28;20402;-79
2022/11/14 14:55:39;;;;;;;29.17;14.85;;;9.40;99.90;;;;;;21176836;27;20036;-80
2022/11/14 15:06:04;;;;;;;32.80;15.88;;;9.20;99.90;;;;;;21158296;27;20486;-81
2022/11/14 15:16:24;;;;;;;27.05;14.25;;;9.20;99.90;;;;;;21179292;27;20048;-79
2022/11/14 15:26:46;;;;;;;47.53;17.45;;;9.20;99.90;;;;;;21163751;27;20032;-79
2022/11/14 15:37:15;;;;;;;42.57;13.97;;;8.90;99.90;;;;;;21175692;28;20039;-81
2022/11/14 15:47:39;;;;;;;34.33;15.10;;;9.00;99.90;;;;;;21083366;28;20494;-79
2022/11/14 15:57:58;;;;;;;34.03;14.35;;;9.00;99.90;;;;;;21107309;28;20485;-80
2022/11/14 16:08:17;;;;;;;79.45;32.92;;;8.90;99.90;;;;;;21147134;28;20031;-80
2022/11/14 16:18:37;;;;;;;27.63;12.63;;;8.90;99.90;;;;;;21167274;28;20087;-80
2022/11/14 16:28:56;;;;;;;32.22;12.10;;;8.90;99.90;;;;;;21163039;28;20044;-79
2022/11/14 16:39:15;;;;;;;23.60;12.05;;;8.90;99.90;;;;;;21077121;28;20131;-80
2022/11/14 16:49:35;;;;;;;22.33;10.45;;;8.80;99.90;;;;;;21139723;28;20071;-80
2022/11/14 16:59:54;;;;;;;15.98;7.18;;;8.80;99.90;;;;;;21174254;28;20032;-80
2022/11/14 17:10:13;;;;;;;173.57;49.40;;;8.80;99.90;;;;;;21169095;28;20040;-81
2022/11/14 17:20:35;;;;;;;24.10;12.55;;;8.80;99.90;;;;;;21170585;28;20035;-81
2022/11/14 17:30:55;;;;;;;11.33;5.87;;;8.70;99.90;;;;;;21154215;28;20478;-81
2022/11/14 17:41:14;;;;;;;9.90;4.80;;;8.70;99.90;;;;;;21096767;28;20115;-81
2022/11/14 17:51:34;;;;;;;18.08;9.77;;;8.60;99.90;;;;;;21098551;28;20044;-80
2022/11/14 18:01:56;;;;;;;7.20;4.50;;;8.50;99.90;;;;;;21123766;28;20490;-80
2022/11/14 18:12:15;;;;;;;16.55;7.90;;;8.30;99.90;;;;;;21123700;28;20032;-80
2022/11/14 18:22:34;;;;;;;8.73;5.55;;;8.20;99.90;;;;;;21165639;28;20118;-80
2022/11/14 18:32:54;;;;;;;7.72;4.40;;;8.10;99.90;;;;;;21113583;28;20032;-80
2022/11/14 18:43:15;;;;;;;11.23;6.45;;;8.10;99.90;;;;;;21085149;28;20040;-80
2022/11/14 18:53:35;;;;;;;19.20;9.00;;;8.00;99.90;;;;;;21082861;28;20036;-79
2022/11/14 19:03:56;;;;;;;11.93;6.32;;;7.70;99.90;;;;;;21092142;28;20031;-80
2022/11/14 19:14:16;;;;;;;8.57;4.90;;;7.60;99.90;;;;;;21168347;28;20478;-79
2022/11/14 19:24:36;;;;;;;12.80;7.32;;;7.50;99.90;;;;;;21170495;28;20114;-79
2022/11/14 19:34:55;;;;;;;7.40;4.53;;;7.60;99.90;;;;;;21169535;28;20075;-79
2022/11/14 19:45:15;;;;;;;8.48;4.20;;;7.60;99.90;;;;;;21166189;28;20071;-80
2022/11/14 19:55:34;;;;;;;11.60;5.90;;;7.70;99.90;;;;;;21154884;28;20505;-80
2022/11/14 20:05:54;;;;;;;11.07;5.82;;;7.60;99.90;;;;;;21169991;28;20401;-80
2022/11/14 20:16:16;;;;;;;6.63;4.28;;;7.40;99.90;;;;;;21091769;28;20067;-80
2022/11/14 20:26:36;;;;;;;6.80;3.33;;;7.20;99.90;;;;;;21160436;28;20048;-80
2022/11/14 20:36:55;;;;;;;6.85;4.20;;;7.00;99.90;;;;;;21121396;28;20039;-80
2022/11/14 20:47:16;;;;;;;8.90;5.85;;;7.10;99.90;;;;;;21144003;28;20036;-79
2022/11/14 20:57:36;;;;;;;9.00;6.20;;;7.30;99.90;;;;;;21139255;28;20342;-79
2022/11/14 21:07:55;;;;;;;13.52;4.85;;;7.40;99.90;;;;;;21099460;28;20398;-80
2022/11/14 21:18:14;;;;;;;15.32;5.45;;;7.40;99.90;;;;;;21167052;28;20028;-81
2022/11/14 21:28:36;;;;;;;8.90;4.25;;;7.30;99.90;;;;;;21171874;28;20501;-78
2022/11/14 21:38:56;;;;;;;11.20;6.38;;;7.30;99.90;;;;;;21158142;28;20490;-79
2022/11/14 21:49:16;;;;;;;12.30;7.30;;;7.30;99.90;;;;;;21134465;28;20040;-79
2022/11/14 21:59:35;;;;;;;16.83;7.18;;;7.30;99.90;;;;;;21160457;28;20036;-79
2022/11/14 22:09:54;;;;;;;10.68;5.10;;;7.30;99.90;;;;;;21148516;28;20044;-80
2022/11/14 22:20:14;;;;;;;13.10;7.47;;;7.40;99.90;;;;;;21133156;28;20036;-80
2022/11/14 22:30:33;;;;;;;13.82;5.05;;;7.40;99.90;;;;;;21132539;28;20036;-79
2022/11/14 22:40:55;;;;;;;12.02;7.10;;;7.40;99.90;;;;;;21147561;28;20036;-80
2022/11/14 22:51:19;;;;;;;17.27;8.67;;;7.50;99.90;;;;;;21180577;28;20075;-79
2022/11/14 23:01:38;;;;;;;17.05;7.82;;;7.50;99.90;;;;;;21179415;28;20772;-79
2022/11/14 23:11:57;;;;;;;13.38;8.20;;;7.50;99.90;;;;;;21175950;28;20433;-79
2022/11/14 23:22:17;;;;;;;15.50;8.38;;;7.40;99.90;;;;;;21178941;28;20502;-80
2022/11/14 23:32:36;;;;;;;14.52;8.57;;;7.40;99.90;;;;;;21178835;28;20474;-79
2022/11/14 23:42:55;;;;;;;15.70;8.13;;;7.30;99.90;;;;;;21178243;28;20035;-79
2022/11/14 23:53:15;;;;;;;17.75;8.88;;;7.40;99.90;;;;;;21174844;28;20043;-79
